createdAt,value
2022-10-11T00:01:00.481Z,102628.47
2022-10-11T00:03:28.819Z,102618.25
2022-10-11T00:05:57.334Z,102625.25
2022-10-11T00:08:26.883Z,102627.09
2022-10-11T00:10:59.571Z,102625.72
2022-10-11T00:13:28.007Z,102615.69
2022-10-11T00:15:56.830Z,102614.22
2022-10-11T00:18:25.262Z,102613.56
2022-10-11T00:21:02.262Z,102610.38
2022-10-11T00:23:31.947Z,102612.28
2022-10-11T00:26:00.619Z,102603.75
2022-10-11T00:28:29.190Z,102606.50
2022-10-11T00:30:57.769Z,102605.78
2022-10-11T00:33:26.123Z,102597.19
2022-10-11T00:35:54.381Z,102597.06
2022-10-11T00:38:22.591Z,102591.84
2022-10-11T00:40:52.123Z,102598.47
2022-10-11T00:43:22.890Z,102588.53
2022-10-11T00:46:20.392Z,102596.13
2022-10-11T00:48:52.027Z,102592.03
2022-10-11T00:51:25.852Z,102596.69
2022-10-11T00:53:55.341Z,102582.34
2022-10-11T00:56:27.636Z,102586.94
2022-10-11T00:58:57.113Z,102583.81
2022-10-11T01:01:25.453Z,102582.22
2022-10-11T01:03:53.563Z,102577.06
2022-10-11T01:06:21.903Z,102586.53
2022-10-11T01:08:51.537Z,102583.16
2022-10-11T01:11:22.689Z,102581.63
2022-10-11T01:14:08.573Z,102579.13
2022-10-11T01:16:43.621Z,102591.34
2022-10-11T01:19:31.202Z,102589.81
2022-10-11T01:22:13.195Z,102581.22
2022-10-11T01:25:03.298Z,102590.22
2022-10-11T01:27:41.027Z,102590.41
2022-10-11T01:30:28.202Z,102589.78
2022-10-11T01:33:06.035Z,102602.06
2022-10-11T01:35:42.119Z,102603.09
2022-10-11T01:38:18.522Z,102598.09
2022-10-11T01:40:49.806Z,102591.31
2022-10-11T01:43:19.728Z,102594.84
2022-10-11T01:45:52.649Z,102599.28
2022-10-11T01:48:21.324Z,102594.22
2022-10-11T01:50:52.173Z,102599.44
2022-10-11T01:53:47.766Z,102592.66
2022-10-11T01:56:28.762Z,102590.16
2022-10-11T01:59:13.369Z,102586.84
2022-10-11T02:01:55.226Z,102587.81
2022-10-11T02:04:32.130Z,102593.03
2022-10-11T02:07:06.795Z,102590.38
2022-10-11T02:09:42.959Z,102594.00
2022-10-11T02:12:14.628Z,102590.56
2022-10-11T02:14:45.096Z,102586.25
2022-10-11T02:17:20.992Z,102583.69
2022-10-11T02:19:53.277Z,102585.47
2022-10-11T02:22:25.857Z,102575.88
2022-10-11T02:24:59.724Z,102580.31
2022-10-11T02:27:46.838Z,102575.16
2022-10-11T02:30:22.403Z,102580.38
2022-10-11T02:32:57.967Z,102572.69
2022-10-11T02:35:30.236Z,102571.91
2022-10-11T02:38:07.839Z,102565.88
2022-10-11T02:40:39.627Z,102563.34
2022-10-11T02:43:19.651Z,102565.88
2022-10-11T02:45:53.116Z,102561.56
2022-10-11T02:48:25.592Z,102559.00
2022-10-11T02:51:05.903Z,102562.38
2022-10-11T02:53:51.837Z,102557.22
2022-10-11T02:56:20.164Z,102554.66
2022-10-11T02:58:50.399Z,102547.75
2022-10-11T03:01:18.338Z,102544.34
2022-10-11T03:03:48.852Z,102538.38
2022-10-11T03:06:16.689Z,102540.16
2022-10-11T03:08:45.885Z,102543.63
2022-10-11T03:11:13.795Z,102547.06
2022-10-11T03:13:44.073Z,102540.31
2022-10-11T03:16:12.306Z,102536.09
2022-10-11T03:18:40.510Z,102532.72
2022-10-11T03:21:10.052Z,102530.94
2022-10-11T03:23:37.942Z,102527.56
2022-10-11T03:26:06.218Z,102527.56
2022-10-11T03:28:34.443Z,102516.41
2022-10-11T03:31:04.888Z,102525.00
2022-10-11T03:33:32.780Z,102515.59
2022-10-11T03:36:00.648Z,102527.69
2022-10-11T03:38:32.903Z,102525.19
2022-10-11T03:41:03.420Z,102520.91
2022-10-11T03:43:31.252Z,102528.72
2022-10-11T03:45:59.134Z,102521.88
2022-10-11T03:48:29.022Z,102529.63
2022-10-11T03:50:57.028Z,102535.66
2022-10-11T03:53:25.089Z,102529.69
2022-10-11T03:55:55.592Z,102529.69
2022-10-11T03:58:24.009Z,102519.38
2022-10-11T04:00:53.182Z,102528.88
2022-10-11T04:03:24.019Z,102526.25
2022-10-11T04:05:52.025Z,102515.91
2022-10-11T04:08:19.953Z,102522.81
2022-10-11T04:10:50.496Z,102521.94
2022-10-11T04:13:19.796Z,102521.06
2022-10-11T04:15:48.306Z,102529.69
2022-10-11T04:18:16.176Z,102520.00
2022-10-11T04:20:44.033Z,102522.53
2022-10-11T04:23:12.072Z,102521.56
2022-10-11T04:25:40.163Z,102508.59
2022-10-11T04:28:09.480Z,102500.00
2022-10-11T04:30:46.559Z,102500.00
2022-10-11T04:33:14.532Z,102506.94
2022-10-11T04:35:42.370Z,102508.66
2022-10-11T04:38:10.232Z,102507.06
2022-10-11T04:40:38.282Z,102506.25
2022-10-11T04:43:06.258Z,102511.47
2022-10-11T04:45:34.544Z,102511.56
2022-10-11T04:48:05.147Z,102514.16
2022-10-11T04:50:33.024Z,102520.97
2022-10-11T04:53:01.018Z,102518.41
2022-10-11T04:55:29.266Z,102517.59
2022-10-11T04:57:57.170Z,102514.94
2022-10-11T05:00:25.010Z,102515.81
2022-10-11T05:02:53.988Z,102525.28
2022-10-11T05:05:23.289Z,102527.03
2022-10-11T05:07:51.155Z,102522.81
2022-10-11T05:10:19.094Z,102519.31
2022-10-11T05:12:47.019Z,102517.53
2022-10-11T05:15:15.225Z,102519.22
2022-10-11T05:17:43.189Z,102520.00
2022-10-11T05:20:12.667Z,102524.31
2022-10-11T05:22:42.056Z,102525.13
2022-10-11T05:25:10.114Z,102524.31
2022-10-11T05:27:38.020Z,102524.31
2022-10-11T05:30:06.740Z,102514.84
2022-10-11T05:32:36.784Z,102522.53
2022-10-11T05:35:05.104Z,102516.56
2022-10-11T05:37:32.937Z,102517.53
2022-10-11T05:40:02.288Z,102514.16
2022-10-11T05:42:30.237Z,102509.00
2022-10-11T05:44:58.024Z,102508.09
2022-10-11T05:47:28.358Z,102497.78
2022-10-11T05:49:56.266Z,102507.22
2022-10-11T05:52:24.183Z,102501.25
2022-10-11T05:54:52.249Z,102505.59
2022-10-11T05:57:21.644Z,102503.88
2022-10-11T05:59:49.519Z,102504.75
2022-10-11T06:02:17.439Z,102509.13
2022-10-11T06:04:45.195Z,102516.03
2022-10-11T06:07:13.201Z,102506.63
2022-10-11T06:09:41.238Z,102506.69
2022-10-11T07:01:56.153Z,102493.94
2022-10-11T07:04:31.280Z,102494.13
2022-10-11T07:07:01.189Z,102500.44
2022-10-11T07:09:38.427Z,102495.50
2022-10-11T07:12:13.892Z,102497.56
2022-10-11T07:14:43.308Z,102494.44
2022-10-11T07:17:13.558Z,102499.06
2022-10-11T07:19:42.812Z,102494.16
2022-10-11T07:22:12.673Z,102491.91
2022-10-11T07:24:52.266Z,102494.63
2022-10-11T07:30:22.447Z,102498.22
2022-10-11T07:32:50.314Z,102504.16
2022-10-11T07:35:21.260Z,102504.00
2022-10-11T07:37:56.650Z,102507.50
2022-10-11T07:40:26.817Z,102510.19
2022-10-11T07:42:57.083Z,102508.69
2022-10-11T07:45:30.684Z,102502.00
2022-10-11T07:47:58.756Z,102502.16
2022-10-11T07:50:38.795Z,102506.63
2022-10-11T07:53:11.927Z,102508.38
2022-10-11T07:55:56.154Z,102506.63
2022-10-11T07:58:24.156Z,102498.75
2022-10-11T08:00:55.269Z,102503.97
2022-10-11T08:03:23.805Z,102501.41
2022-10-11T08:06:00.837Z,102504.13
2022-10-11T08:08:33.753Z,102505.56
2022-10-11T08:11:04.911Z,102510.63
2022-10-11T08:13:32.701Z,102507.00
2022-10-11T08:33:29.224Z,102524.81
2022-10-11T08:36:05.693Z,102522.16
2022-10-11T08:38:36.247Z,102512.53
2022-10-11T08:41:15.809Z,102518.38
2022-10-11T08:43:50.075Z,102514.94
2022-10-11T08:46:24.162Z,102514.34
2022-10-11T08:48:52.417Z,102509.66
2022-10-11T08:51:29.161Z,102510.09
2022-10-11T08:54:07.167Z,102508.72
2022-10-11T08:56:37.812Z,102506.22
2022-10-11T08:59:12.022Z,102496.94
2022-10-11T09:01:43.375Z,102505.16
2022-10-11T09:04:30.746Z,102502.81
2022-10-11T09:07:06.233Z,102494.63
2022-10-11T09:09:47.263Z,102499.63
2022-10-11T09:12:19.890Z,102501.25
2022-10-11T09:14:55.129Z,102498.63
2022-10-11T09:17:39.014Z,102501.06
2022-10-11T09:20:21.124Z,102500.75
2022-10-11T09:22:59.284Z,102500.78
2022-10-11T09:25:37.027Z,102500.72
2022-10-11T09:28:12.788Z,102501.41
2022-10-11T09:30:53.336Z,102499.81
2022-10-11T09:33:25.927Z,102506.13
2022-10-11T09:42:31.715Z,102506.69
2022-10-11T09:45:08.952Z,102516.81
2022-10-11T09:47:36.824Z,102508.09
2022-10-11T09:50:08.066Z,102504.53
2022-10-11T09:52:35.902Z,102503.31
2022-10-11T09:55:07.215Z,102500.00
2022-10-11T09:57:40.392Z,102496.63
2022-10-11T10:00:22.025Z,102495.22
2022-10-11T10:02:50.419Z,102492.84
2022-10-11T10:05:27.198Z,102488.81
2022-10-11T10:08:07.214Z,102487.28
2022-10-11T10:10:41.028Z,102479.72
2022-10-11T10:13:21.408Z,102479.84
2022-10-11T10:15:50.916Z,102474.25
2022-10-11T10:18:21.857Z,102477.38
2022-10-11T10:20:53.220Z,102471.47
2022-10-11T10:23:31.392Z,102481.69
2022-10-11T10:26:18.856Z,102466.84
2022-10-11T10:29:03.807Z,102479.19
2022-10-11T10:31:54.904Z,102475.06
2022-10-11T10:34:24.635Z,102476.66
2022-10-11T10:36:56.044Z,102468.44
2022-10-11T10:39:27.104Z,102479.72
2022-10-11T10:42:06.265Z,102476.25
2022-10-11T10:44:39.531Z,102468.50
2022-10-11T10:47:10.750Z,102474.56
2022-10-11T10:49:53.773Z,102463.31
2022-10-11T10:52:58.689Z,102467.91
2022-10-11T10:55:30.019Z,102472.28
2022-10-11T10:58:16.409Z,102471.44
2022-10-11T11:00:49.095Z,102458.50
2022-10-11T11:03:25.525Z,102463.97
2022-10-11T11:05:58.828Z,102463.38
2022-10-11T11:08:36.042Z,102465.94
2022-10-11T11:11:18.216Z,102466.00
2022-10-11T11:13:49.608Z,102460.72
2022-10-11T11:16:23.713Z,102458.34
2022-10-11T11:18:55.847Z,102456.72
2022-10-11T11:21:29.088Z,102454.94
2022-10-11T11:24:05.682Z,102452.31
2022-10-11T11:26:39.667Z,102449.03
2022-10-11T11:29:22.395Z,102439.63
2022-10-11T11:32:09.838Z,102434.78
2022-10-11T11:34:42.857Z,102439.38
2022-10-11T11:37:17.385Z,102437.88
2022-10-11T11:39:47.417Z,102430.31
2022-10-11T11:42:20.646Z,102428.63
2022-10-11T11:44:52.329Z,102417.94
2022-10-11T11:47:26.338Z,102425.41
2022-10-11T11:49:57.816Z,102430.47
2022-10-11T11:52:28.670Z,102425.22
2022-10-11T11:55:07.827Z,102431.31
2022-10-11T11:57:44.050Z,102428.53
2022-10-11T12:00:15.998Z,102425.09
2022-10-11T12:02:49.052Z,102423.84
2022-10-11T12:05:21.032Z,102420.66
2022-10-11T12:07:58.331Z,102420.72
2022-10-11T12:10:34.961Z,102424.25
2022-10-11T12:13:06.152Z,102415.00
2022-10-11T12:15:34.022Z,102416.03
2022-10-11T12:18:16.262Z,102408.00
2022-10-11T12:20:50.603Z,102420.03
2022-10-11T12:23:34.332Z,102413.84
2022-10-11T12:26:39.003Z,102409.38
2022-10-11T12:29:28.814Z,102404.88
2022-10-11T12:32:16.848Z,102410.31
2022-10-11T12:34:46.160Z,102397.63
2022-10-11T12:37:35.611Z,102386.28
2022-10-11T12:40:03.446Z,102396.59
2022-10-11T12:42:32.514Z,102401.03
2022-10-11T12:45:18.842Z,102389.47
2022-10-11T12:47:49.482Z,102388.34
2022-10-11T12:50:25.707Z,102388.22
2022-10-11T12:53:01.080Z,102378.63
2022-10-11T12:55:39.541Z,102370.94
2022-10-11T12:58:29.120Z,102368.47
2022-10-11T13:01:18.149Z,102362.41
2022-10-11T13:03:50.954Z,102364.25
2022-10-11T13:06:21.740Z,102360.84
2022-10-11T13:08:54.610Z,102365.38
2022-10-11T13:11:24.687Z,102357.00
2022-10-11T13:13:57.648Z,102346.66
2022-10-11T13:16:35.580Z,102347.56
2022-10-11T13:19:06.861Z,102343.25
2022-10-11T13:21:43.463Z,102337.13
2022-10-11T13:24:14.813Z,102329.28
2022-10-11T13:26:47.828Z,102338.81
2022-10-11T13:29:17.461Z,102332.59
2022-10-11T13:31:46.908Z,102322.72
2022-10-11T13:34:17.601Z,102328.72
2022-10-11T13:36:51.673Z,102326.94
2022-10-11T13:39:31.093Z,102322.41
2022-10-11T13:42:09.060Z,102322.47
2022-10-11T13:44:42.490Z,102312.03
2022-10-11T13:47:17.451Z,102306.03
2022-10-11T13:49:47.133Z,102315.66
2022-10-11T13:52:23.648Z,102303.50
2022-10-11T13:54:59.155Z,102310.44
2022-10-11T13:57:34.472Z,102306.13
2022-10-11T14:00:09.240Z,102306.03
2022-10-11T14:02:39.581Z,102292.78
2022-10-11T14:05:10.277Z,102291.69
2022-10-11T14:07:45.514Z,102292.41
2022-10-11T14:10:19.871Z,102293.00
2022-10-11T14:13:01.574Z,102290.34
2022-10-11T14:15:30.990Z,102292.16
2022-10-11T14:18:01.726Z,102278.13
2022-10-11T14:20:42.946Z,102287.63
2022-10-11T14:23:15.765Z,102280.72
2022-10-11T14:25:43.542Z,102269.53
2022-10-11T14:28:14.073Z,102267.97
2022-10-11T14:30:42.613Z,102261.22
2022-10-11T14:33:13.313Z,102257.91
2022-10-11T14:35:43.405Z,102257.25
2022-10-11T14:38:13.099Z,102250.34
2022-10-11T14:40:40.974Z,102246.94
2022-10-11T14:43:08.749Z,102242.63
2022-10-11T14:45:36.578Z,102244.31
2022-10-11T14:48:07.302Z,102233.72
2022-10-11T14:50:39.206Z,102231.81
2022-10-11T14:53:12.034Z,102230.03
2022-10-11T14:55:42.237Z,102222.13
2022-10-11T14:58:10.821Z,102223.69
2022-10-11T15:00:38.770Z,102219.13
2022-10-11T15:03:07.274Z,102211.19
2022-10-11T15:05:35.496Z,102222.41
2022-10-11T15:08:08.725Z,102216.34
2022-10-11T15:10:37.667Z,102205.97
2022-10-11T15:13:32.266Z,102207.59
2022-10-11T15:16:04.885Z,102200.53
2022-10-11T15:18:35.759Z,102190.78
2022-10-11T15:21:15.222Z,102187.28
2022-10-11T15:23:47.387Z,102183.84
2022-10-11T15:26:19.859Z,102177.78
2022-10-11T15:28:50.346Z,102175.13
2022-10-11T15:31:22.196Z,102168.06
2022-10-11T15:33:50.414Z,102166.19
2022-10-11T15:36:21.294Z,102171.31
2022-10-11T15:38:49.525Z,102163.50
2022-10-11T15:41:20.861Z,102168.56
2022-10-11T15:43:50.384Z,102172.75
2022-10-11T15:46:24.900Z,102160.28
2022-10-11T15:48:53.411Z,102159.97
2022-10-11T15:51:25.749Z,102158.97
2022-10-11T15:53:56.222Z,102157.94
2022-10-11T15:56:24.336Z,102151.75
2022-10-11T15:58:52.117Z,102142.09
2022-10-11T16:01:21.665Z,102147.25
2022-10-11T16:03:53.588Z,102148.88
2022-10-11T16:06:23.463Z,102153.22
2022-10-11T16:08:51.318Z,102144.56
2022-10-11T16:11:19.178Z,102135.03
2022-10-11T16:13:47.677Z,102142.06
2022-10-11T16:16:18.432Z,102134.19
2022-10-11T16:18:47.613Z,102135.09
2022-10-11T16:21:16.418Z,102117.66
2022-10-11T16:23:44.238Z,102109.78
2022-10-11T16:26:13.955Z,102112.28
2022-10-11T16:28:43.097Z,102112.16
2022-10-11T16:31:12.111Z,102112.91
2022-10-11T16:33:46.065Z,102105.84
2022-10-11T16:36:36.510Z,102100.56
2022-10-11T16:39:07.577Z,102095.19
2022-10-11T16:41:35.445Z,102100.31
2022-10-11T16:44:06.928Z,102097.66
2022-10-11T16:46:34.967Z,102094.09
2022-10-11T16:49:02.797Z,102092.25
2022-10-11T16:51:32.440Z,102098.19
2022-10-11T16:56:48.559Z,102086.56
2022-10-11T16:59:16.327Z,102090.72
2022-10-11T17:01:46.692Z,102096.63
2022-10-11T17:04:14.909Z,102093.06
2022-10-11T17:06:45.012Z,102092.88
2022-10-11T17:09:16.174Z,102090.28
2022-10-11T17:11:49.964Z,102082.47
2022-10-11T17:14:20.998Z,102085.06
2022-10-11T17:16:56.086Z,102085.81
2022-10-11T17:19:34.933Z,102084.88
2022-10-11T17:22:04.140Z,102075.28
2022-10-11T17:24:31.927Z,102069.13
2022-10-11T17:27:01.353Z,102066.44
2022-10-11T17:29:29.098Z,102053.38
2022-10-11T17:31:56.968Z,102059.38
2022-10-11T17:34:25.096Z,102059.28
2022-10-11T17:36:54.989Z,102053.13
2022-10-11T17:39:26.867Z,102051.28
2022-10-11T17:42:10.111Z,102045.97
2022-10-11T17:44:37.932Z,102050.28
2022-10-11T17:47:05.977Z,102048.47
2022-10-11T17:49:42.203Z,102046.69
2022-10-11T17:52:10.076Z,102048.41
2022-10-11T17:54:42.068Z,102044.03
2022-10-11T17:57:11.543Z,102045.69
2022-10-11T17:59:41.949Z,102045.63
2022-10-11T18:02:14.695Z,102043.91
2022-10-11T18:04:45.502Z,102046.41
2022-10-11T18:07:16.020Z,102046.34
2022-10-11T18:09:52.462Z,102045.34
2022-10-11T18:12:27.557Z,102042.63
2022-10-11T18:14:55.387Z,102049.44
2022-10-11T18:17:24.144Z,102045.94
2022-10-11T18:19:54.786Z,102048.50
2022-10-11T18:22:29.213Z,102044.16
2022-10-11T18:25:14.548Z,102042.41
2022-10-11T18:27:42.460Z,102050.16
2022-10-11T18:30:10.940Z,102046.59
2022-10-11T18:32:38.921Z,102042.13
2022-10-11T18:35:07.099Z,102039.38
2022-10-11T18:37:38.264Z,102030.44
2022-10-11T18:40:11.764Z,102027.59
2022-10-11T20:36:15.026Z,101947.16
2022-10-11T20:50:23.289Z,101928.19
2022-10-11T20:53:21.359Z,101916.94
2022-10-11T20:58:34.207Z,101927.31
2022-10-11T21:01:17.616Z,101916.94
2022-10-11T21:03:45.932Z,101910.91
2022-10-11T21:06:21.105Z,101914.31
2022-10-11T21:08:57.197Z,101917.75
2022-10-11T21:11:38.465Z,101917.72
2022-10-11T21:14:15.490Z,101916.78
2022-10-11T22:24:54.406Z,101835.34
2022-10-11T22:27:28.447Z,101836.25
2022-10-11T22:29:58.011Z,101830.25
2022-10-11T22:32:35.097Z,101834.59
2022-10-11T22:35:09.314Z,101837.19
2022-10-11T22:37:37.448Z,101831.16
2022-10-11T22:40:08.928Z,101828.56
2022-10-11T22:42:40.438Z,101826.81
2022-10-11T22:45:11.015Z,101830.25
2022-10-11T22:47:41.827Z,101811.31
2022-10-11T22:50:10.022Z,101813.88
2022-10-11T22:52:40.820Z,101810.41
2022-10-11T22:55:10.545Z,101812.09
2022-10-11T22:57:50.528Z,101808.69
2022-10-11T23:00:19.829Z,101807.75
2022-10-11T23:02:48.132Z,101801.69
2022-10-11T23:05:20.996Z,101799.03
2022-10-11T23:07:51.361Z,101791.25
2022-10-11T23:10:20.945Z,101787.72
2022-10-11T23:12:55.087Z,101780.78
2022-10-11T23:15:24.955Z,101775.59
2022-10-11T23:17:55.870Z,101771.28
2022-10-11T23:20:26.952Z,101762.66
2022-10-11T23:22:58.036Z,101757.47
2022-10-11T23:25:34.422Z,101756.56
2022-10-11T23:28:06.910Z,101753.94
2022-10-11T23:30:40.843Z,101756.53
2022-10-11T23:33:10.201Z,101751.34
2022-10-11T23:35:42.987Z,101747.91
2022-10-11T23:38:10.956Z,101739.31
2022-10-11T23:40:46.603Z,101744.50
2022-10-11T23:43:17.032Z,101733.22
2022-10-11T23:45:45.818Z,101729.63
2022-10-11T23:48:19.918Z,101723.47
2022-10-11T23:50:49.628Z,101715.56
2022-10-11T23:53:20.432Z,101708.53
2022-10-11T23:55:58.098Z,101698.91
